createdAt,value
2018-06-19T14:24:05.441Z,4.70
2018-06-19T14:26:47.557Z,4.70
2018-06-19T14:29:19.536Z,4.37
2018-06-19T14:31:48.610Z,4.50
2018-06-19T14:34:29.670Z,4.20
2018-06-19T14:36:58.002Z,4.60
2018-06-19T14:39:26.422Z,4.78
2018-06-19T14:42:01.219Z,4.20
2018-06-19T14:44:35.120Z,3.98
2018-06-19T14:47:03.636Z,4.00
2018-06-19T14:49:33.527Z,4.90
2018-06-19T14:52:03.014Z,4.22
2018-06-19T14:54:32.781Z,3.87
2018-06-19T14:57:01.118Z,4.47
2018-06-19T14:59:42.504Z,4.25
2018-06-19T15:02:10.885Z,4.50
2018-06-19T15:04:51.610Z,6.25
2018-06-19T15:07:37.940Z,4.08
2018-06-19T15:10:18.670Z,4.90
2018-06-19T15:12:52.263Z,4.50
2018-06-19T15:15:20.695Z,4.30
2018-06-19T15:18:01.098Z,4.00
2018-06-19T15:20:41.937Z,4.90
2018-06-19T15:23:22.753Z,4.90
2018-06-19T15:26:03.654Z,4.65
2018-06-19T15:28:31.613Z,5.10
2018-06-19T15:30:59.946Z,5.40
2018-06-19T15:33:28.254Z,5.20
2018-06-19T15:36:08.644Z,5.00
2018-06-19T15:38:49.660Z,5.33
2018-06-19T15:41:30.212Z,6.10
2018-06-19T15:43:58.433Z,6.62
2018-06-19T15:46:38.708Z,4.90
2018-06-19T15:49:19.343Z,6.40
2018-06-19T15:51:59.817Z,6.05
2018-06-19T15:54:40.767Z,6.22
2018-06-19T15:57:22.754Z,5.50
2018-06-19T15:59:50.965Z,5.90
2018-06-19T16:02:19.407Z,5.47
2018-06-19T16:05:00.573Z,4.90
2018-06-19T16:08:18.378Z,5.70
2018-06-19T16:10:58.588Z,4.92
2018-06-19T16:13:28.966Z,4.60
2018-06-19T16:16:09.553Z,5.17
2018-06-19T16:18:50.165Z,4.75
2018-06-19T16:21:30.976Z,4.37
2018-06-19T16:24:03.655Z,4.90
2018-06-19T16:26:31.869Z,4.60
2018-06-19T16:29:00.058Z,4.70
2018-06-19T16:31:40.851Z,4.12
2018-06-19T16:34:21.736Z,3.98
2018-06-19T16:37:02.483Z,3.75
2018-06-19T16:39:34.669Z,3.80
2018-06-19T16:42:14.984Z,3.60
2018-06-19T16:44:43.206Z,4.12
2018-06-19T16:47:23.332Z,3.50
2018-06-19T16:49:51.536Z,3.40
2018-06-19T16:52:25.574Z,3.58
2018-06-19T16:54:59.990Z,3.45
2018-06-19T16:57:40.793Z,3.60
2018-06-19T17:00:21.708Z,3.75
2018-06-19T17:02:50.130Z,3.85
2018-06-19T17:05:31.244Z,4.10
2018-06-19T17:07:59.514Z,4.10
2018-06-19T17:10:27.732Z,3.40
2018-06-19T17:13:08.128Z,4.10
2018-06-19T17:15:48.811Z,3.80
2018-06-19T17:18:29.787Z,3.77
2018-06-19T17:20:59.047Z,3.62
2018-06-19T17:23:27.507Z,3.92
2018-06-19T17:26:08.551Z,3.67
2018-06-19T17:28:49.032Z,3.50
2018-06-19T17:31:17.311Z,3.62
2018-06-19T17:33:57.564Z,2.98
2018-06-19T17:36:38.342Z,3.37
2018-06-19T17:39:19.247Z,2.70
2018-06-19T17:41:47.521Z,2.50
2018-06-19T17:44:28.029Z,2.52
2018-06-19T17:47:08.641Z,2.40
2018-06-19T17:49:49.466Z,2.90
2018-06-19T17:52:17.742Z,2.50
2018-06-19T17:54:57.869Z,2.90
2018-06-19T17:57:40.074Z,3.10
2018-06-19T18:00:21.190Z,2.90
2018-06-19T18:03:04.385Z,2.60
2018-06-19T18:05:44.971Z,2.80
2018-06-19T18:08:25.959Z,3.40
2018-06-19T18:10:54.213Z,3.40
2018-06-19T18:13:35.352Z,3.10
2018-06-19T18:16:03.301Z,2.98
2018-06-19T18:18:43.977Z,3.10
2018-06-19T18:21:24.987Z,3.00
2018-06-19T18:24:05.540Z,3.55
2018-06-19T18:26:46.265Z,3.90
2018-06-19T18:29:14.473Z,3.60
2018-06-19T18:31:42.641Z,3.50
2018-06-19T18:34:10.957Z,3.67
2018-06-19T18:36:51.433Z,3.55
2018-06-19T18:39:19.711Z,3.90
2018-06-19T18:41:59.995Z,5.72
2018-06-19T18:44:29.052Z,3.72
2018-06-19T18:46:57.393Z,3.58
2018-06-19T18:49:26.320Z,5.62
2018-06-19T18:52:07.496Z,3.65
2018-06-19T18:54:48.671Z,3.33
2018-06-19T18:57:28.968Z,3.58
2018-06-19T19:00:09.883Z,3.60
2018-06-19T19:02:51.084Z,3.25
2018-06-19T19:05:31.556Z,3.50
2018-06-19T19:08:17.505Z,3.50
2018-06-19T19:10:51.137Z,3.52
2018-06-19T19:13:31.579Z,3.30
2018-06-19T19:16:05.169Z,7.17
2018-06-19T19:18:38.954Z,4.90
2018-06-19T19:21:19.790Z,3.77
2018-06-19T19:24:00.754Z,3.62
2018-06-19T19:26:46.970Z,3.60
2018-06-19T19:29:33.318Z,3.70
2018-06-19T19:32:01.669Z,3.72
2018-06-19T19:34:30.029Z,3.60
2018-06-19T19:37:16.203Z,3.90
2018-06-19T19:39:44.570Z,4.17
2018-06-19T19:42:25.357Z,4.00
2018-06-19T19:45:06.109Z,5.30
2018-06-19T19:47:52.347Z,3.83
2018-06-19T19:50:21.085Z,3.40
2018-06-19T19:53:01.226Z,4.10
2018-06-19T19:55:31.130Z,3.70
2018-06-19T19:58:17.370Z,3.60
2018-06-19T20:00:57.759Z,3.70
2018-06-19T20:03:26.000Z,3.87
2018-06-19T20:05:54.226Z,3.50
2018-06-19T20:08:25.223Z,3.62
2018-06-19T20:10:53.563Z,3.98
2018-06-19T20:13:33.885Z,4.33
2018-06-19T20:16:14.686Z,4.40
2018-06-19T20:18:55.501Z,4.30
2018-06-19T20:21:23.863Z,4.62
2018-06-19T20:24:04.196Z,4.55
2018-06-19T20:26:32.444Z,4.60
2018-06-19T20:29:12.901Z,5.15
2018-06-19T20:31:53.882Z,5.08
2018-06-19T20:34:34.770Z,4.35
2018-06-19T20:37:15.706Z,4.40
2018-06-19T20:39:43.964Z,5.10
2018-06-19T20:42:24.578Z,4.35
2018-06-19T20:45:05.476Z,4.42
2018-06-19T20:47:47.303Z,5.17
2018-06-19T20:50:28.508Z,4.20
2018-06-19T20:52:56.706Z,4.78
2018-06-19T20:55:25.094Z,4.72
2018-06-19T20:58:06.322Z,6.42
2018-06-19T21:00:47.084Z,5.10
2018-06-19T21:03:28.068Z,5.08
2018-06-19T21:05:56.489Z,5.40
2018-06-19T21:08:35.737Z,5.30
2018-06-19T21:11:04.324Z,4.95
2018-06-19T21:13:45.513Z,5.08
2018-06-19T21:16:26.201Z,5.10
2018-06-19T21:19:06.937Z,4.85
2018-06-19T21:21:37.193Z,5.40
2018-06-19T21:24:17.402Z,5.80
2018-06-19T21:26:58.418Z,5.67
2018-06-19T21:29:40.725Z,5.20
2018-06-19T21:32:22.289Z,5.20
2018-06-19T21:35:03.054Z,5.40
2018-06-19T21:37:43.729Z,5.10
2018-06-19T21:40:12.021Z,5.50
2018-06-19T21:42:40.300Z,5.10
2018-06-19T21:45:21.426Z,4.80
2018-06-19T21:48:02.297Z,5.20
2018-06-19T21:50:43.086Z,5.40
2018-06-19T21:53:24.053Z,5.30
2018-06-19T21:56:04.987Z,4.95
2018-06-19T21:58:33.254Z,5.67
2018-06-19T22:01:13.522Z,5.22
2018-06-19T22:03:54.354Z,5.13
2018-06-19T22:06:22.829Z,5.80
2018-06-19T22:09:03.552Z,5.03
2018-06-19T22:11:44.145Z,5.20
2018-06-19T22:14:12.400Z,5.05
2018-06-19T22:16:52.776Z,5.33
2018-06-19T22:19:33.592Z,5.53
2018-06-19T22:22:03.531Z,5.33
2018-06-19T22:24:31.817Z,5.70
2018-06-19T22:27:12.164Z,5.97
2018-06-19T22:29:40.501Z,6.00
2018-06-19T22:32:21.537Z,6.15
2018-06-19T22:34:50.947Z,5.80
2018-06-19T22:37:31.272Z,6.40
2018-06-19T22:39:59.538Z,6.20
2018-06-19T22:42:40.050Z,6.92
2018-06-19T22:45:20.699Z,6.30
2018-06-19T22:47:48.944Z,6.80
2018-06-19T22:50:17.225Z,6.80
2018-06-19T22:52:45.490Z,5.75
2018-06-19T22:55:13.747Z,6.65
2018-06-19T22:57:42.018Z,6.28
2018-06-19T23:00:22.786Z,6.47
2018-06-19T23:03:06.929Z,6.40
2018-06-19T23:05:48.672Z,6.03
2018-06-19T23:08:17.761Z,6.08
2018-06-19T23:11:00.078Z,6.40
2018-06-19T23:13:41.871Z,7.10
2018-06-19T23:16:22.484Z,5.90
2018-06-19T23:18:50.668Z,7.17
2018-06-19T23:21:19.028Z,7.50
2018-06-19T23:24:00.062Z,6.33
2018-06-19T23:26:40.808Z,5.70
2018-06-19T23:29:21.479Z,6.20
2018-06-19T23:32:02.392Z,6.62
2018-06-19T23:34:42.958Z,6.80
2018-06-19T23:37:11.375Z,6.95
2018-06-19T23:39:51.964Z,7.35
2018-06-19T23:42:33.210Z,7.00
2018-06-19T23:45:13.706Z,7.37
2018-06-19T23:47:54.449Z,7.47
2018-06-19T23:50:35.320Z,6.50
2018-06-19T23:53:16.430Z,7.72
2018-06-19T23:55:57.052Z,7.30
2018-06-19T23:58:25.495Z,7.00
